Time;durP1;ratioP1;P1;durP2;ratioP2;P2;SDS_P1;SDS_P2;PMS_P1;PMS_P2;Temp;Humidity;BMP_temperature;BMP_pressure;BME280_temperature;BME280_humidity;BME280_pressure;Samples;Min_cycle;Max_cycle;Signal;HPM_P1;HPM_P2
2024/04/16 00:01:51;;;;;;;14.80;3.60;;;16.10;69.70;;;;;;5450169;26;19995;-77
2024/04/16 00:04:17;;;;;;;7.47;3.53;;;16.10;69.50;;;;;;5445807;26;19998;-77
2024/04/16 00:06:43;;;;;;;8.60;3.77;;;16.10;69.40;;;;;;5451752;26;20080;-78
2024/04/16 00:09:08;;;;;;;8.37;3.53;;;16.10;69.30;;;;;;5450372;26;19990;-78
2024/04/16 00:11:34;;;;;;;8.83;3.03;;;16.10;69.10;;;;;;5434152;26;20013;-77
2024/04/16 00:14:00;;;;;;;11.53;3.37;;;16.00;69.10;;;;;;5422929;26;20077;-76
2024/04/16 00:16:26;;;;;;;6.83;2.93;;;16.00;68.90;;;;;;5440149;26;20002;-78
2024/04/16 00:18:51;;;;;;;9.43;3.07;;;16.00;68.70;;;;;;5441004;26;20068;-77
2024/04/16 00:21:17;;;;;;;8.43;2.50;;;16.10;68.60;;;;;;5431986;26;20003;-77
2024/04/16 00:23:43;;;;;;;11.83;3.87;;;16.00;68.50;;;;;;5449528;26;20007;-77
2024/04/16 00:26:08;;;;;;;12.53;3.17;;;16.00;68.50;;;;;;5447819;26;20652;-77
2024/04/16 00:28:34;;;;;;;9.40;3.00;;;16.10;68.60;;;;;;5447075;26;20010;-77
2024/04/16 00:31:00;;;;;;;7.27;2.50;;;16.00;68.60;;;;;;5440020;26;20337;-77
2024/04/16 00:33:25;;;;;;;10.93;3.30;;;16.00;68.60;;;;;;5441517;26;20007;-77
2024/04/16 00:35:51;;;;;;;7.83;2.60;;;16.00;68.50;;;;;;5436533;26;20009;-78
2024/04/16 00:38:17;;;;;;;6.57;2.93;;;16.00;68.60;;;;;;5449393;26;20002;-79
2024/04/16 00:40:43;;;;;;;7.73;2.53;;;16.00;68.60;;;;;;5436582;26;20419;-78
2024/04/16 00:43:19;;;;;;;7.20;2.47;;;16.00;68.60;;;;;;5441946;26;20003;-77
2024/04/16 00:45:50;;;;;;;7.30;2.47;;;16.00;68.70;;;;;;5446121;26;20320;-77
2024/04/16 00:48:18;;;;;;;4.85;2.30;;;16.00;68.50;;;;;;5438836;26;20003;-77
2024/04/16 00:50:45;;;;;;;12.60;2.60;;;16.00;68.60;;;;;;5426845;26;20076;-77
2024/04/16 00:53:12;;;;;;;9.65;2.60;;;16.00;68.60;;;;;;5428936;26;20018;-78
2024/04/16 00:55:38;;;;;;;4.85;2.58;;;16.00;68.40;;;;;;5432538;26;20662;-78
2024/04/16 00:58:05;;;;;;;4.78;2.17;;;16.00;68.40;;;;;;5438173;26;19999;-76
2024/04/16 01:00:30;;;;;;;;;;;16.00;68.40;;;;;;5446488;26;20006;-78
2024/04/16 01:02:56;;;;;;;5.53;2.23;;;15.90;68.40;;;;;;5449754;26;19924;-77
2024/04/16 01:05:22;;;;;;;4.77;2.40;;;15.90;68.40;;;;;;5441454;26;20320;-77
2024/04/16 01:07:48;;;;;;;6.93;2.40;;;15.90;68.40;;;;;;5425576;26;20020;-77
2024/04/16 01:10:13;;;;;;;4.67;2.00;;;15.90;68.50;;;;;;5432894;26;20443;-77
2024/04/16 01:12:43;;;;;;;7.23;3.10;;;15.90;68.50;;;;;;5434139;26;20481;-78
2024/04/16 01:15:08;;;;;;;7.50;2.50;;;15.90;68.50;;;;;;5431792;26;20456;-76
2024/04/16 01:17:34;;;;;;;5.03;1.57;;;15.90;68.50;;;;;;5421248;26;20003;-77
2024/04/16 01:20:00;;;;;;;6.47;2.83;;;15.90;68.50;;;;;;5436198;26;20007;-77
2024/04/16 01:22:26;;;;;;;5.07;1.90;;;15.90;68.50;;;;;;5446052;26;20013;-77
2024/04/16 01:24:51;;;;;;;2.97;1.67;;;15.90;68.50;;;;;;5445073;26;20002;-77
2024/04/16 01:27:17;;;;;;;5.60;2.00;;;15.90;68.50;;;;;;5453988;26;20427;-77
2024/04/16 01:29:43;;;;;;;5.55;2.22;;;15.80;68.40;;;;;;5437468;26;20003;-77
2024/04/16 01:32:09;;;;;;;5.17;1.80;;;15.80;68.40;;;;;;5434264;26;20014;-77
2024/04/16 01:34:34;;;;;;;6.90;1.90;;;15.80;68.30;;;;;;5445692;26;20009;-77
2024/04/16 01:37:00;;;;;;;5.80;1.60;;;15.80;68.30;;;;;;5441991;26;20006;-76
2024/04/16 01:39:26;;;;;;;4.57;1.70;;;15.80;68.30;;;;;;5447240;26;20440;-77
2024/04/16 01:41:52;;;;;;;3.93;1.80;;;15.80;68.30;;;;;;5427078;26;19998;-77
2024/04/16 01:44:17;;;;;;;4.83;1.50;;;15.80;68.50;;;;;;5434982;26;20013;-76
2024/04/16 01:46:43;;;;;;;6.83;1.97;;;15.70;68.50;;;;;;5427756;26;20011;-77
2024/04/16 01:49:09;;;;;;;4.03;1.27;;;15.80;68.50;;;;;;5432764;26;19999;-77
2024/04/16 01:51:34;;;;;;;5.27;1.63;;;15.80;68.50;;;;;;5438922;26;20040;-77
2024/04/16 01:54:00;;;;;;;6.77;1.83;;;15.70;68.70;;;;;;5451921;26;20007;-77
2024/04/16 01:56:26;;;;;;;4.30;1.73;;;15.70;68.70;;;;;;5437952;26;20419;-77
2024/04/16 01:58:51;;;;;;;3.50;1.20;;;15.70;68.70;;;;;;5432601;26;20031;-77
2024/04/16 02:01:18;;;;;;;6.27;1.77;;;15.70;68.80;;;;;;5438116;26;20450;-77
2024/04/16 02:03:43;;;;;;;3.97;1.55;;;15.70;68.90;;;;;;5440239;26;19998;-77
2024/04/16 02:06:09;;;;;;;5.83;1.53;;;15.70;68.90;;;;;;5437530;26;19999;-76
2024/04/16 02:08:35;;;;;;;5.63;1.60;;;15.60;69.00;;;;;;5446713;26;20017;-77
2024/04/16 02:11:01;;;;;;;3.97;1.17;;;15.70;68.90;;;;;;5440130;26;20351;-77
2024/04/16 02:13:28;;;;;;;3.20;1.57;;;15.60;68.90;;;;;;5437867;26;20004;-77
2024/04/16 02:15:53;;;;;;;;;;;15.60;69.00;;;;;;5426859;26;20005;-77
2024/04/16 02:18:19;;;;;;;2.77;1.27;;;15.60;69.10;;;;;;5438748;26;19940;-78
2024/04/16 02:20:45;;;;;;;5.63;2.33;;;15.60;69.10;;;;;;5426030;26;20077;-77
2024/04/16 02:23:10;;;;;;;4.93;1.13;;;15.60;69.20;;;;;;5430073;26;20011;-78
2024/04/16 02:25:36;;;;;;;4.03;1.33;;;15.60;69.20;;;;;;5445358;26;20003;-77
2024/04/16 02:28:02;;;;;;;3.33;1.30;;;15.60;69.20;;;;;;5440671;26;20006;-78
2024/04/16 02:30:29;;;;;;;2.83;1.45;;;15.60;69.30;;;;;;5442371;26;20039;-77
2024/04/16 02:32:54;;;;;;;3.05;1.20;;;15.60;69.40;;;;;;5439186;26;20022;-78
2024/04/16 02:35:20;;;;;;;4.07;1.27;;;15.50;69.30;;;;;;5437717;26;20075;-78
2024/04/16 02:37:48;;;;;;;4.88;1.50;;;15.60;69.30;;;;;;5449706;26;20010;-76
2024/04/16 02:40:15;;;;;;;1.67;1.00;;;15.50;69.40;;;;;;5447034;26;20076;-77
2024/04/16 02:42:40;;;;;;;2.67;1.20;;;15.50;69.40;;;;;;5429224;26;20010;-77
2024/04/16 02:45:06;;;;;;;2.33;1.07;;;15.50;69.40;;;;;;5450158;26;19999;-78
2024/04/16 02:47:32;;;;;;;2.07;1.20;;;15.50;69.50;;;;;;5438559;26;20031;-78
2024/04/16 02:49:58;;;;;;;1.63;1.23;;;15.50;69.50;;;;;;5440384;26;20015;-76
2024/04/16 02:52:23;;;;;;;1.70;0.93;;;15.50;69.60;;;;;;5434224;26;20017;-77
2024/04/16 02:54:49;;;;;;;3.10;1.10;;;15.50;69.70;;;;;;5433261;26;20038;-78
2024/04/16 02:57:15;;;;;;;2.27;1.30;;;15.50;69.70;;;;;;5442142;26;20019;-78
2024/04/16 02:59:41;;;;;;;3.03;1.27;;;15.50;69.80;;;;;;5446053;26;19991;-78
2024/04/16 03:02:06;;;;;;;4.07;1.40;;;15.50;69.70;;;;;;5435279;26;20039;-77
2024/04/16 03:04:32;;;;;;;1.80;1.03;;;15.50;69.70;;;;;;5444421;26;20359;-77
2024/04/16 03:06:58;;;;;;;6.03;1.30;;;15.50;69.70;;;;;;5436387;26;20014;-77
2024/04/16 03:09:24;;;;;;;2.33;1.17;;;15.50;69.80;;;;;;5443643;26;20017;-77
2024/04/16 03:11:49;;;;;;;4.23;1.10;;;15.50;69.80;;;;;;5429315;26;19999;-77
2024/04/16 03:14:15;;;;;;;1.83;0.97;;;15.50;69.90;;;;;;5428979;26;20035;-79
2024/04/16 03:16:41;;;;;;;3.00;0.93;;;15.50;69.90;;;;;;5435188;26;20011;-77
2024/04/16 03:19:07;;;;;;;3.53;1.20;;;15.50;69.90;;;;;;5435428;26;20018;-77
2024/04/16 03:21:33;;;;;;;5.00;1.10;;;15.50;69.90;;;;;;5435197;26;20437;-78
2024/04/16 03:23:59;;;;;;;1.10;0.70;;;15.50;70.00;;;;;;5445247;26;20013;-78
2024/04/16 03:26:25;;;;;;;4.60;1.03;;;15.50;70.00;;;;;;5448972;26;20003;-77
2024/04/16 03:28:50;;;;;;;2.97;0.90;;;15.40;70.20;;;;;;5423192;26;20382;-77
2024/04/16 03:31:16;;;;;;;6.00;1.10;;;15.40;70.10;;;;;;5432466;26;20081;-77
2024/04/16 03:33:42;;;;;;;1.90;1.00;;;15.40;70.20;;;;;;5453514;26;20439;-78
2024/04/16 03:36:08;;;;;;;2.80;1.03;;;15.40;70.00;;;;;;5442063;26;20355;-77
2024/04/16 03:38:33;;;;;;;1.37;0.87;;;15.40;70.00;;;;;;5422143;26;20000;-77
2024/04/16 03:41:00;;;;;;;2.93;1.27;;;15.40;69.90;;;;;;5432989;26;20007;-77
2024/04/16 03:43:26;;;;;;;;;;;15.40;69.80;;;;;;5444616;26;20439;-77
2024/04/16 03:45:57;;;;;;;4.72;0.93;;;15.40;69.90;;;;;;5433819;26;19925;-78
2024/04/16 03:48:24;;;;;;;1.50;0.82;;;15.40;69.90;;;;;;5436196;26;20015;-78
2024/04/16 03:50:50;;;;;;;2.88;1.15;;;15.40;69.90;;;;;;5435276;26;20011;-77
2024/04/16 03:53:16;;;;;;;1.58;0.93;;;15.40;69.90;;;;;;5430945;26;19995;-78
2024/04/16 03:55:42;;;;;;;2.63;0.73;;;15.30;70.00;;;;;;5460170;26;19998;-76
2024/04/16 03:58:08;;;;;;;1.70;0.57;;;15.30;69.90;;;;;;5438831;26;20009;-77
2024/04/16 04:03:19;;;;;;;2.38;1.02;;;15.30;70.00;;;;;;5437953;26;20088;-78
2024/04/16 04:05:45;;;;;;;4.25;1.20;;;15.30;69.90;;;;;;5441133;26;20003;-77
2024/04/16 04:08:11;;;;;;;2.30;0.75;;;15.30;69.80;;;;;;5428322;26;20475;-78
2024/04/16 04:10:37;;;;;;;1.93;0.83;;;15.30;69.80;;;;;;5444579;26;20006;-78
2024/04/16 04:13:03;;;;;;;3.28;0.80;;;15.30;69.80;;;;;;5449522;26;20011;-78
2024/04/16 04:15:29;;;;;;;1.60;0.60;;;15.30;69.70;;;;;;5436076;26;20017;-77
2024/04/16 04:17:55;;;;;;;5.03;0.90;;;15.30;69.70;;;;;;5436675;26;20023;-77
2024/04/16 04:20:21;;;;;;;1.97;0.90;;;15.30;69.70;;;;;;5429650;26;20030;-77
2024/04/16 04:22:47;;;;;;;2.30;1.10;;;15.30;69.70;;;;;;5425029;26;20010;-77
2024/04/16 04:25:12;;;;;;;3.93;0.80;;;15.20;69.60;;;;;;5428752;26;20014;-78
2024/04/16 04:27:41;;;;;;;2.83;0.57;;;15.20;69.60;;;;;;5442693;26;20003;-78
2024/04/16 04:30:08;;;;;;;1.98;0.88;;;15.20;69.60;;;;;;5438440;26;20007;-77
2024/04/16 04:32:33;;;;;;;;;;;15.20;69.60;;;;;;5421722;26;20049;-77
2024/04/16 04:34:59;;;;;;;1.77;0.60;;;15.20;69.60;;;;;;5443603;26;19956;-76
2024/04/16 04:37:25;;;;;;;2.65;0.57;;;15.20;69.60;;;;;;5444162;26;20010;-77
2024/04/16 04:39:51;;;;;;;2.13;0.70;;;15.20;69.70;;;;;;5447199;26;20161;-77
2024/04/16 04:42:17;;;;;;;2.60;0.90;;;15.20;69.70;;;;;;5440830;26;20015;-77
2024/04/16 04:44:42;;;;;;;1.87;0.53;;;15.20;69.70;;;;;;5437920;26;20006;-77
2024/04/16 04:47:08;;;;;;;2.10;1.07;;;15.20;69.70;;;;;;5440433;26;20331;-77
2024/04/16 04:49:34;;;;;;;1.33;0.50;;;15.20;69.80;;;;;;5433829;26;20003;-78
2024/04/16 04:52:00;;;;;;;2.37;0.63;;;15.20;69.70;;;;;;5451649;26;20014;-77
2024/04/16 04:54:25;;;;;;;2.07;0.60;;;15.20;69.60;;;;;;5464186;26;20731;-77
2024/04/16 04:56:51;;;;;;;4.87;0.87;;;15.20;69.70;;;;;;5442185;26;20011;-77
2024/04/16 04:59:17;;;;;;;3.60;0.80;;;15.10;69.70;;;;;;5428783;26;19999;-78
2024/04/16 05:01:43;;;;;;;2.17;0.57;;;15.20;69.70;;;;;;5427268;26;20429;-77
2024/04/16 05:04:09;;;;;;;2.47;1.23;;;15.10;69.70;;;;;;5443748;26;20005;-76
2024/04/16 05:06:37;;;;;;;2.40;0.80;;;15.10;69.80;;;;;;5437465;26;19999;-76
2024/04/16 05:09:03;;;;;;;3.03;0.65;;;15.10;69.80;;;;;;5440507;26;20026;-77
2024/04/16 05:11:29;;;;;;;2.40;0.65;;;15.10;69.90;;;;;;5449447;26;20010;-77
2024/04/16 05:13:54;;;;;;;2.20;0.60;;;15.10;69.80;;;;;;5444464;26;20050;-77
2024/04/16 05:16:20;;;;;;;0.80;0.50;;;15.10;69.80;;;;;;5432869;26;20448;-77
2024/04/16 05:18:46;;;;;;;2.23;0.50;;;15.10;69.90;;;;;;5447265;26;20010;-75
2024/04/16 05:21:12;;;;;;;3.87;1.23;;;15.10;69.90;;;;;;5444516;26;20418;-77
2024/04/16 05:23:37;;;;;;;1.90;1.10;;;15.10;69.90;;;;;;5433507;26;19999;-77
2024/04/16 05:26:04;;;;;;;0.93;0.60;;;15.10;69.90;;;;;;5427681;26;20005;-76
2024/04/16 05:28:30;;;;;;;3.58;0.90;;;15.10;69.70;;;;;;5450132;26;19995;-77
2024/04/16 05:30:57;;;;;;;2.23;1.03;;;15.10;69.70;;;;;;5435364;26;20445;-77
2024/04/16 05:33:26;;;;;;;3.65;0.80;;;15.10;69.60;;;;;;5432905;26;20749;-77
2024/04/16 05:35:52;;;;;;;2.08;0.60;;;15.10;69.70;;;;;;5429560;26;19999;-78
2024/04/16 05:38:18;;;;;;;3.00;0.73;;;15.10;69.70;;;;;;5453907;26;20009;-77
2024/04/16 05:40:44;;;;;;;1.77;0.70;;;15.10;69.60;;;;;;5446992;26;19999;-77
2024/04/16 05:43:10;;;;;;;1.77;0.70;;;15.10;69.60;;;;;;5429843;26;20001;-77
2024/04/16 05:45:36;;;;;;;3.87;0.90;;;15.10;69.70;;;;;;5438520;26;20283;-77
2024/04/16 05:48:01;;;;;;;1.58;0.70;;;15.10;69.60;;;;;;5444188;26;19998;-77
2024/04/16 05:50:27;;;;;;;2.90;0.83;;;15.10;69.70;;;;;;5444818;26;20009;-77
2024/04/16 05:52:53;;;;;;;1.70;0.70;;;15.10;69.80;;;;;;5446862;26;20022;-78
2024/04/16 05:55:19;;;;;;;3.27;1.53;;;15.10;69.70;;;;;;5439528;26;20030;-77
2024/04/16 05:57:45;;;;;;;2.40;0.70;;;15.10;69.80;;;;;;5441218;26;20000;-77
2024/04/16 06:00:12;;;;;;;5.10;0.90;;;15.10;69.70;;;;;;5431373;26;20006;-78
2024/04/16 06:02:37;;;;;;;3.65;1.17;;;15.10;69.80;;;;;;5433743;26;20107;-77
2024/04/16 06:05:04;;;;;;;3.63;0.93;;;15.10;69.80;;;;;;5445092;26;20452;-77
2024/04/16 06:07:30;;;;;;;4.32;0.90;;;15.10;69.70;;;;;;5430473;26;20014;-77
2024/04/16 06:09:56;;;;;;;11.83;1.20;;;15.10;69.50;;;;;;5435133;26;20007;-77
2024/04/16 06:12:21;;;;;;;3.90;1.03;;;15.10;69.40;;;;;;5445749;26;20323;-78
2024/04/16 06:14:47;;;;;;;4.23;0.90;;;15.10;69.40;;;;;;5443021;26;20003;-78
2024/04/16 06:17:13;;;;;;;4.53;1.10;;;15.10;69.30;;;;;;5433280;26;20015;-77
2024/04/16 06:19:39;;;;;;;6.57;1.07;;;15.00;69.40;;;;;;5431011;26;20038;-77
2024/04/16 06:22:05;;;;;;;2.63;0.70;;;15.10;69.20;;;;;;5445401;26;20014;-77
2024/04/16 06:24:31;;;;;;;3.60;0.70;;;15.10;69.30;;;;;;5441354;26;20561;-78
2024/04/16 06:26:57;;;;;;;1.23;0.70;;;15.10;69.30;;;;;;5440737;26;20004;-78
2024/04/16 06:29:22;;;;;;;5.13;0.87;;;15.10;69.30;;;;;;5432820;26;20000;-77
2024/04/16 06:31:48;;;;;;;5.57;1.53;;;15.10;69.30;;;;;;5445237;26;20091;-78
2024/04/16 06:34:14;;;;;;;4.67;0.90;;;15.10;69.30;;;;;;5445593;26;20017;-78
2024/04/16 06:36:39;;;;;;;6.50;1.17;;;15.10;69.30;;;;;;5433331;26;20436;-77
2024/04/16 06:39:05;;;;;;;4.57;0.80;;;15.10;69.30;;;;;;5433295;26;20343;-77
2024/04/16 06:41:31;;;;;;;3.50;1.03;;;15.10;69.30;;;;;;5445977;26;20014;-77
2024/04/16 06:43:56;;;;;;;4.20;0.90;;;15.10;69.30;;;;;;5434671;26;20017;-77
2024/04/16 06:46:22;;;;;;;4.53;1.17;;;15.10;69.30;;;;;;5444882;26;19998;-77
2024/04/16 06:48:51;;;;;;;2.73;0.90;;;15.10;69.20;;;;;;5432795;26;20443;-78
2024/04/16 06:51:16;;;;;;;7.18;1.48;;;15.10;69.10;;;;;;5434355;26;20021;-77
2024/04/16 06:53:42;;;;;;;5.73;1.53;;;15.10;69.10;;;;;;5441146;26;20340;-77
2024/04/16 06:56:08;;;;;;;3.53;0.80;;;15.10;69.10;;;;;;5442757;26;20039;-78
2024/04/16 06:58:34;;;;;;;5.17;1.00;;;15.10;69.10;;;;;;5432968;26;20065;-77
2024/04/16 07:01:00;;;;;;;6.60;1.30;;;15.10;69.20;;;;;;5426510;26;20332;-78
2024/04/16 07:03:26;;;;;;;4.20;2.50;;;15.10;69.30;;;;;;5447228;26;19999;-76
2024/04/16 07:05:52;;;;;;;7.03;1.67;;;15.10;69.20;;;;;;5442595;26;20018;-77
2024/04/16 07:08:18;;;;;;;7.80;1.70;;;15.20;69.40;;;;;;5435675;26;20010;-77
2024/04/16 07:10:47;;;;;;;7.10;1.85;;;15.20;69.20;;;;;;5432131;26;20017;-78
2024/04/16 07:13:14;;;;;;;10.45;1.83;;;15.20;69.10;;;;;;5432170;26;20017;-78
2024/04/16 07:15:40;;;;;;;12.65;1.90;;;15.10;69.20;;;;;;5429544;26;20015;-77
2024/04/16 07:18:05;;;;;;;10.63;1.70;;;15.10;69.30;;;;;;5448755;26;20339;-76
2024/04/16 07:20:32;;;;;;;15.10;2.50;;;15.10;69.30;;;;;;5444547;26;20014;-77
2024/04/16 07:22:58;;;;;;;5.25;1.38;;;15.10;69.70;;;;;;5432304;26;20006;-77
2024/04/16 07:25:23;;;;;;;10.23;2.33;;;15.10;69.50;;;;;;5461682;26;20071;-78
2024/04/16 07:27:49;;;;;;;11.07;1.87;;;15.10;69.70;;;;;;5426763;26;20016;-77
2024/04/16 07:30:15;;;;;;;9.70;2.20;;;15.10;69.50;;;;;;5439432;26;20003;-77
2024/04/16 07:32:41;;;;;;;7.03;1.42;;;15.10;69.60;;;;;;5450169;26;20035;-77
2024/04/16 07:35:07;;;;;;;8.07;2.10;;;15.10;69.70;;;;;;5438507;26;20072;-78
2024/04/16 07:37:33;;;;;;;8.50;1.80;;;15.10;70.10;;;;;;5430932;26;20014;-77
2024/04/16 07:39:58;;;;;;;11.43;1.63;;;15.10;70.00;;;;;;5440058;26;20002;-77
2024/04/16 07:42:24;;;;;;;4.43;1.27;;;15.10;69.90;;;;;;5438266;26;19995;-77
2024/04/16 07:44:50;;;;;;;16.13;3.33;;;15.20;69.80;;;;;;5443210;26;20060;-77
2024/04/16 07:47:15;;;;;;;9.97;2.10;;;15.20;70.00;;;;;;5431794;26;20003;-77
2024/04/16 07:49:41;;;;;;;12.97;2.27;;;15.20;70.10;;;;;;5442450;26;20018;-76
2024/04/16 07:52:07;;;;;;;8.00;1.97;;;15.20;70.00;;;;;;5450701;26;19999;-77
2024/04/16 07:54:32;;;;;;;10.93;2.37;;;15.30;70.30;;;;;;5444023;26;20420;-77
2024/04/16 07:56:59;;;;;;;8.60;2.17;;;15.30;70.10;;;;;;5418764;26;20026;-77
2024/04/16 07:59:24;;;;;;;12.02;2.00;;;15.30;70.00;;;;;;5441076;26;19999;-77
2024/04/16 08:01:50;;;;;;;5.20;1.70;;;15.40;69.60;;;;;;5437098;26;20014;-77
2024/04/16 08:04:16;;;;;;;4.97;1.60;;;16.50;66.60;;;;;;5438261;26;20014;-77
2024/04/16 08:06:42;;;;;;;4.80;1.97;;;17.70;62.80;;;;;;5432980;26;20002;-77
2024/04/16 08:09:08;;;;;;;12.33;1.83;;;18.20;60.60;;;;;;5431568;26;20005;-77
2024/04/16 08:11:33;;;;;;;8.10;1.80;;;18.00;60.80;;;;;;5430354;26;20113;-78
2024/04/16 08:13:59;;;;;;;8.97;2.13;;;17.70;61.60;;;;;;5424534;26;20069;-77
2024/04/16 08:16:26;;;;;;;6.30;1.50;;;17.50;61.90;;;;;;5432155;26;20013;-77
2024/04/16 08:18:52;;;;;;;5.80;1.90;;;17.40;62.20;;;;;;5441499;26;20011;-78
2024/04/16 08:21:18;;;;;;;5.37;1.80;;;17.70;61.70;;;;;;5447411;26;20507;-76
2024/04/16 08:23:43;;;;;;;5.23;1.47;;;18.40;59.90;;;;;;5435642;26;20013;-77
2024/04/16 08:26:09;;;;;;;4.43;1.30;;;18.40;59.60;;;;;;5432933;26;20301;-77
2024/04/16 08:28:35;;;;;;;3.63;1.67;;;17.70;61.00;;;;;;5440105;26;20006;-77
2024/04/16 08:31:02;;;;;;;7.87;1.33;;;17.50;62.00;;;;;;5441318;26;20018;-77
2024/04/16 08:33:28;;;;;;;7.18;2.00;;;17.20;63.00;;;;;;5446413;26;20405;-77
2024/04/16 08:35:54;;;;;;;8.00;2.10;;;17.10;63.20;;;;;;5442544;26;20010;-76
2024/04/16 08:38:20;;;;;;;6.30;1.20;;;17.10;63.00;;;;;;5445326;26;20436;-76
2024/04/16 08:40:46;;;;;;;3.27;1.20;;;16.90;63.60;;;;;;5443868;26;20014;-77
2024/04/16 08:43:12;;;;;;;5.57;1.40;;;16.80;63.90;;;;;;5438728;26;20752;-77
2024/04/16 08:45:41;;;;;;;10.80;1.50;;;16.90;63.80;;;;;;5434719;26;21013;-76
2024/04/16 08:48:08;;;;;;;5.40;1.60;;;17.20;63.10;;;;;;5427513;26;20014;-77
2024/04/16 08:50:36;;;;;;;5.38;1.55;;;17.10;63.00;;;;;;5443062;26;20050;-76
2024/04/16 08:53:03;;;;;;;9.65;1.83;;;16.90;63.50;;;;;;5438553;26;20011;-77
2024/04/16 08:55:30;;;;;;;10.50;4.93;;;16.80;63.70;;;;;;5429833;26;19994;-78
2024/04/16 08:57:56;;;;;;;12.25;5.18;;;16.70;63.90;;;;;;5426641;26;20424;-78
2024/04/16 09:00:22;;;;;;;14.63;4.70;;;16.80;63.80;;;;;;5438057;26;20739;-77
2024/04/16 09:02:51;;;;;;;9.48;4.25;;;17.00;63.50;;;;;;5443549;26;20017;-76
2024/04/16 09:05:18;;;;;;;8.98;3.63;;;17.00;63.50;;;;;;5428316;26;20348;-76
2024/04/16 09:07:44;;;;;;;7.80;3.95;;;17.30;62.70;;;;;;5446882;26;20002;-76
2024/04/16 09:10:14;;;;;;;10.33;4.33;;;17.80;61.30;;;;;;5437362;26;20006;-79
2024/04/16 09:12:44;;;;;;;8.88;4.10;;;17.90;60.90;;;;;;5441736;26;20006;-78
2024/04/16 09:15:14;;;;;;;6.93;3.30;;;17.60;62.30;;;;;;5446867;26;20010;-75
2024/04/16 09:17:50;;;;;;;7.72;3.50;;;17.30;63.20;;;;;;5436508;26;20519;-75
2024/04/16 09:20:21;;;;;;;7.20;3.75;;;17.20;63.80;;;;;;5433529;26;20018;-76
2024/04/16 09:22:48;;;;;;;6.20;3.42;;;17.10;64.10;;;;;;5432897;26;20546;-77
2024/04/16 09:25:18;;;;;;;7.70;3.60;;;17.30;63.60;;;;;;5446582;26;20009;-76
2024/04/16 09:27:47;;;;;;;7.43;3.38;;;17.80;62.50;;;;;;5424190;26;20323;-77
2024/04/16 09:30:14;;;;;;;6.10;3.13;;;18.40;60.50;;;;;;5437169;26;19999;-76
2024/04/16 09:32:56;;;;;;;8.25;3.28;;;18.50;60.30;;;;;;5433975;26;20011;-77
2024/04/16 09:35:29;;;;;;;6.82;3.00;;;18.60;60.00;;;;;;5423313;26;20042;-77
2024/04/16 09:38:05;;;;;;;4.75;2.83;;;18.50;59.90;;;;;;5433267;26;20416;-78
2024/04/16 09:40:31;;;;;;;6.88;3.13;;;18.10;61.00;;;;;;5433239;26;20452;-77
2024/04/16 09:42:58;;;;;;;5.22;2.60;;;18.90;59.70;;;;;;5415910;26;20420;-76
2024/04/16 09:45:24;;;;;;;5.90;2.60;;;19.80;56.70;;;;;;5438067;26;20039;-77
2024/04/16 09:47:51;;;;;;;5.65;2.55;;;19.00;57.90;;;;;;5443941;26;20132;-78
2024/04/16 09:50:21;;;;;;;6.95;2.60;;;18.30;60.10;;;;;;5438865;26;19999;-78
2024/04/16 09:52:51;;;;;;;4.85;2.42;;;18.20;60.60;;;;;;5445603;26;20009;-77
2024/04/16 09:55:21;;;;;;;4.45;2.33;;;17.90;61.50;;;;;;5429417;26;20462;-77
2024/04/16 09:57:51;;;;;;;7.50;2.58;;;17.80;62.10;;;;;;5444304;26;19995;-76
2024/04/16 10:00:17;;;;;;;4.43;2.20;;;17.80;62.20;;;;;;5446458;26;20424;-78
2024/04/16 10:02:44;;;;;;;4.78;2.38;;;17.80;62.30;;;;;;5444284;26;20076;-78
2024/04/16 10:05:10;;;;;;;;;;;17.80;62.20;;;;;;5441579;26;20411;-78
2024/04/16 10:07:37;;;;;;;21.67;12.10;;;17.90;62.00;;;;;;5449107;26;19924;-78
2024/04/16 10:10:08;;;;;;;79.72;40.45;;;17.70;62.60;;;;;;5444150;26;20010;-78
2024/04/16 10:12:34;;;;;;;138.10;70.45;;;17.70;63.00;;;;;;5432939;26;20050;-77
2024/04/16 10:15:01;;;;;;;72.57;40.53;;;18.20;61.80;;;;;;5432876;26;20638;-78
2024/04/16 10:17:28;;;;;;;76.97;39.50;;;18.30;61.30;;;;;;5443099;26;20013;-77
2024/04/16 10:19:54;;;;;;;78.85;41.08;;;18.30;61.40;;;;;;5432881;26;20003;-77
2024/04/16 10:22:20;;;;;;;53.85;28.25;;;18.10;62.20;;;;;;5438548;26;20009;-77
2024/04/16 10:24:53;;;;;;;56.73;29.93;;;17.90;62.90;;;;;;5424472;26;20021;-78
2024/04/16 10:27:21;;;;;;;48.63;26.98;;;18.30;62.70;;;;;;5412192;26;19999;-76
2024/04/16 10:29:47;;;;;;;45.78;25.15;;;18.50;62.00;;;;;;5419526;26;20011;-78
2024/04/16 10:32:13;;;;;;;42.50;23.93;;;18.30;62.50;;;;;;5446165;26;20003;-77
2024/04/16 10:34:42;;;;;;;37.70;21.43;;;18.10;63.30;;;;;;5431105;26;20031;-78
2024/04/16 10:37:08;;;;;;;612.45;385.25;;;18.20;63.20;;;;;;5431253;26;20054;-78
2024/04/16 10:39:33;;;;;;;382.53;228.67;;;18.10;63.70;;;;;;5440724;26;20404;-77
2024/04/16 10:42:03;;;;;;;198.00;116.83;;;18.10;63.80;;;;;;5437819;26;21027;-77
2024/04/16 10:44:29;;;;;;;284.13;158.45;;;18.00;64.30;;;;;;5424022;26;20035;-78
2024/04/16 10:46:57;;;;;;;271.95;146.60;;;17.80;64.80;;;;;;5440657;26;19995;-79
2024/04/16 10:49:24;;;;;;;251.82;135.23;;;17.80;65.20;;;;;;5439194;26;20022;-79
2024/04/16 10:51:54;;;;;;;273.38;138.48;;;17.80;65.10;;;;;;5446373;26;20003;-77
2024/04/16 10:54:20;;;;;;;270.35;132.85;;;17.70;65.40;;;;;;5434835;26;20004;-77
2024/04/16 10:56:50;;;;;;;254.32;128.85;;;17.70;65.70;;;;;;5445244;26;20454;-78
2024/04/16 10:59:17;;;;;;;240.13;123.88;;;17.60;65.80;;;;;;5430821;26;20003;-77
2024/04/16 11:01:45;;;;;;;238.23;118.57;;;17.70;65.50;;;;;;5437103;26;20040;-77
2024/04/16 11:04:12;;;;;;;235.98;112.80;;;17.90;65.00;;;;;;5463889;26;20075;-79
2024/04/16 11:06:39;;;;;;;222.95;106.88;;;18.00;64.70;;;;;;5447942;26;20003;-78
2024/04/16 11:09:05;;;;;;;207.93;105.50;;;18.10;64.20;;;;;;5436231;26;20088;-79
2024/04/16 11:11:32;;;;;;;199.57;102.97;;;18.50;62.90;;;;;;5425403;26;20488;-77
2024/04/16 11:13:58;;;;;;;204.07;98.30;;;18.70;62.10;;;;;;5425660;26;20281;-76
2024/04/16 11:16:24;;;;;;;194.32;94.65;;;19.10;61.30;;;;;;5433949;26;20396;-77
2024/04/16 11:18:51;;;;;;;195.50;94.07;;;19.30;60.60;;;;;;5434509;26;19999;-78
2024/04/16 11:21:18;;;;;;;173.60;88.65;;;19.20;60.50;;;;;;5431677;26;20017;-77
2024/04/16 11:23:44;;;;;;;166.63;87.78;;;19.10;61.20;;;;;;5418011;26;20018;-77
2024/04/16 11:26:10;;;;;;;161.80;82.55;;;19.40;60.30;;;;;;5438337;26;20002;-79
2024/04/16 11:28:44;;;;;;;156.50;79.63;;;19.00;61.20;;;;;;5431421;26;20052;-79
2024/04/16 11:31:10;;;;;;;155.48;78.63;;;18.70;62.20;;;;;;5442359;26;20007;-78
2024/04/16 11:33:36;;;;;;;144.63;73.73;;;18.60;62.80;;;;;;5430545;26;19999;-78
2024/04/16 11:36:05;;;;;;;140.33;70.13;;;18.70;62.80;;;;;;5416860;26;20010;-80
2024/04/16 11:38:33;;;;;;;136.27;66.88;;;18.60;62.80;;;;;;5439164;26;19999;-78
2024/04/16 11:40:58;;;;;;;121.28;59.70;;;18.60;62.90;;;;;;5458409;26;20100;-78
2024/04/16 11:43:29;;;;;;;121.53;56.77;;;18.70;62.60;;;;;;5436659;26;20007;-78
2024/04/16 11:45:56;;;;;;;114.90;53.38;;;18.70;62.40;;;;;;5434132;26;20017;-77
2024/04/16 11:48:21;;;;;;;102.13;50.97;;;18.80;62.40;;;;;;5445229;26;20003;-80
2024/04/16 11:50:47;;;;;;;106.20;51.33;;;18.90;62.20;;;;;;5448466;26;20419;-79
2024/04/16 11:53:13;;;;;;;105.17;49.57;;;18.90;62.20;;;;;;5443209;26;20075;-77
2024/04/16 11:55:39;;;;;;;97.23;43.83;;;18.80;62.50;;;;;;5435360;26;19995;-80
2024/04/16 11:58:07;;;;;;;82.43;42.63;;;18.80;62.70;;;;;;5446516;26;20013;-79
2024/04/16 12:00:33;;;;;;;75.65;37.90;;;18.70;63.10;;;;;;5437127;26;20347;-81
2024/04/16 12:03:01;;;;;;;72.55;39.03;;;18.60;63.40;;;;;;5440520;26;20415;-80
2024/04/16 12:05:27;;;;;;;68.03;35.72;;;18.60;63.60;;;;;;5441691;26;20075;-79
2024/04/16 12:07:53;;;;;;;75.33;34.90;;;18.70;63.40;;;;;;5446945;26;20010;-79
2024/04/16 12:10:18;;;;;;;68.90;31.95;;;18.70;63.30;;;;;;5436821;26;20006;-79
2024/04/16 12:12:44;;;;;;;66.97;31.33;;;18.80;63.30;;;;;;5438556;26;20010;-78
2024/04/16 12:15:10;;;;;;;54.43;29.43;;;18.80;63.10;;;;;;5443383;26;20003;-78
2024/04/16 12:17:36;;;;;;;60.83;30.40;;;18.70;63.20;;;;;;5432250;26;20226;-79
2024/04/16 12:20:02;;;;;;;57.80;28.37;;;18.70;63.60;;;;;;5433183;26;20447;-78
2024/04/16 12:22:28;;;;;;;59.78;29.27;;;18.60;63.80;;;;;;5430554;26;20068;-78
2024/04/16 12:24:54;;;;;;;62.25;26.58;;;18.50;64.00;;;;;;5426856;26;20041;-79
2024/04/16 12:27:20;;;;;;;53.13;25.40;;;18.50;63.90;;;;;;5435531;26;20562;-78
2024/04/16 12:29:47;;;;;;;47.22;22.50;;;18.50;63.90;;;;;;5435211;26;20443;-78
2024/04/16 12:32:12;;;;;;;50.33;23.98;;;18.50;63.80;;;;;;5433808;26;20425;-79
2024/04/16 12:34:38;;;;;;;50.33;22.63;;;18.60;63.50;;;;;;5439680;26;20009;-79
2024/04/16 12:37:04;;;;;;;43.37;21.50;;;18.60;63.40;;;;;;5420457;26;19999;-77
2024/04/16 12:39:30;;;;;;;39.97;20.20;;;18.60;63.50;;;;;;5426856;26;20369;-78